sensor_id;sensor_type;location;lat;lon;timestamp;pressure;altitude;pressure_sealevel;temperature
76583;BMP280;65462;52.148;7.940;2023-07-22T00:00:39;100572.78;;;14.21
76583;BMP280;65462;52.148;7.940;2023-07-22T00:03:05;100578.47;;;14.19
76583;BMP280;65462;52.148;7.940;2023-07-22T00:05:30;100573.88;;;14.20
76583;BMP280;65462;52.148;7.940;2023-07-22T00:07:55;100578.81;;;14.18
76583;BMP280;65462;52.148;7.940;2023-07-22T00:10:20;100571.50;;;14.15
76583;BMP280;65462;52.148;7.940;2023-07-22T00:12:46;100575.28;;;14.14
76583;BMP280;65462;52.148;7.940;2023-07-22T00:15:11;100566.44;;;14.10
76583;BMP280;65462;52.148;7.940;2023-07-22T00:17:37;100564.25;;;14.12
76583;BMP280;65462;52.148;7.940;2023-07-22T00:20:03;100564.25;;;14.12
76583;BMP280;65462;52.148;7.940;2023-07-22T00:22:30;100560.03;;;14.11
76583;BMP280;65462;52.148;7.940;2023-07-22T00:24:55;100567.56;;;14.09
76583;BMP280;65462;52.148;7.940;2023-07-22T00:27:20;100559.59;;;14.09
76583;BMP280;65462;52.148;7.940;2023-07-22T00:29:45;100564.91;;;14.09
76583;BMP280;65462;52.148;7.940;2023-07-22T00:32:11;100568.69;;;14.07
76583;BMP280;65462;52.148;7.940;2023-07-22T00:34:36;100560.31;;;14.06
76583;BMP280;65462;52.148;7.940;2023-07-22T00:37:02;100573.13;;;14.03
76583;BMP280;65462;52.148;7.940;2023-07-22T00:39:27;100560.19;;;14.02
76583;BMP280;65462;52.148;7.940;2023-07-22T00:41:53;100559.44;;;14.01
76583;BMP280;65462;52.148;7.940;2023-07-22T00:44:18;100553.72;;;13.99
76583;BMP280;65462;52.148;7.940;2023-07-22T00:46:44;100555.50;;;13.95
76583;BMP280;65462;52.148;7.940;2023-07-22T00:49:09;100560.72;;;13.92
76583;BMP280;65462;52.148;7.940;2023-07-22T00:51:35;100555.00;;;13.90
76583;BMP280;65462;52.148;7.940;2023-07-22T00:54:00;100561.41;;;13.89
76583;BMP280;65462;52.148;7.940;2023-07-22T00:56:26;100554.44;;;13.84
76583;BMP280;65462;52.148;7.940;2023-07-22T00:58:52;100558.94;;;13.80
76583;BMP280;65462;52.148;7.940;2023-07-22T01:01:17;100550.50;;;13.78
76583;BMP280;65462;52.148;7.940;2023-07-22T01:03:43;100544.41;;;13.78
76583;BMP280;65462;52.148;7.940;2023-07-22T01:06:09;100547.44;;;13.76
76583;BMP280;65462;52.148;7.940;2023-07-22T01:08:34;100548.91;;;13.74
76583;BMP280;65462;52.148;7.940;2023-07-22T01:11:00;100543.13;;;13.72
76583;BMP280;65462;52.148;7.940;2023-07-22T01:13:25;100545.72;;;13.68
76583;BMP280;65462;52.148;7.940;2023-07-22T01:15:50;100535.75;;;13.65
76583;BMP280;65462;52.148;7.940;2023-07-22T01:18:16;100556.22;;;13.65
76583;BMP280;65462;52.148;7.940;2023-07-22T01:20:41;100544.50;;;13.66
76583;BMP280;65462;52.148;7.940;2023-07-22T01:23:07;100542.19;;;13.64
76583;BMP280;65462;52.148;7.940;2023-07-22T01:25:33;100541.44;;;13.64
76583;BMP280;65462;52.148;7.940;2023-07-22T01:27:58;100542.19;;;13.64
76583;BMP280;65462;52.148;7.940;2023-07-22T01:30:23;100544.09;;;13.64
76583;BMP280;65462;52.148;7.940;2023-07-22T01:32:50;100542.19;;;13.64
76583;BMP280;65462;52.148;7.940;2023-07-22T01:35:15;100536.47;;;13.62
76583;BMP280;65462;52.148;7.940;2023-07-22T01:37:41;100545.53;;;13.61
76583;BMP280;65462;52.148;7.940;2023-07-22T01:40:06;100538.22;;;13.58
76583;BMP280;65462;52.148;7.940;2023-07-22T01:42:41;100537.13;;;13.59
76583;BMP280;65462;52.148;7.940;2023-07-22T01:45:07;100540.50;;;13.56
76583;BMP280;65462;52.148;7.940;2023-07-22T01:47:37;100543.16;;;13.56
76583;BMP280;65462;52.148;7.940;2023-07-22T01:50:04;100537.06;;;13.56
76583;BMP280;65462;52.148;7.940;2023-07-22T01:52:29;100545.81;;;13.56
76583;BMP280;65462;52.148;7.940;2023-07-22T01:54:55;100544.66;;;13.57
76583;BMP280;65462;52.148;7.940;2023-07-22T01:57:20;100544.59;;;13.54
76583;BMP280;65462;52.148;7.940;2023-07-22T01:59:45;100543.03;;;13.53
76583;BMP280;65462;52.148;7.940;2023-07-22T02:02:11;100550.69;;;13.54
76583;BMP280;65462;52.148;7.940;2023-07-22T02:04:36;100549.91;;;13.54
76583;BMP280;65462;52.148;7.940;2023-07-22T02:07:01;100544.50;;;13.50
76583;BMP280;65462;52.148;7.940;2023-07-22T02:09:26;100549.81;;;13.50
76583;BMP280;65462;52.148;7.940;2023-07-22T02:11:52;100546.38;;;13.50
76583;BMP280;65462;52.148;7.940;2023-07-22T02:14:18;100546.72;;;13.48
76583;BMP280;65462;52.148;7.940;2023-07-22T02:16:43;100546.72;;;13.48
76583;BMP280;65462;52.148;7.940;2023-07-22T02:19:08;100542.53;;;13.47
76583;BMP280;65462;52.148;7.940;2023-07-22T02:21:34;100554.69;;;13.48
76583;BMP280;65462;52.148;7.940;2023-07-22T02:23:59;100552.38;;;13.47
76583;BMP280;65462;52.148;7.940;2023-07-22T02:26:24;100552.03;;;13.48
76583;BMP280;65462;52.148;7.940;2023-07-22T02:28:49;100555.44;;;13.49
76583;BMP280;65462;52.148;7.940;2023-07-22T02:31:15;100554.25;;;13.46
76583;BMP280;65462;52.148;7.940;2023-07-22T02:33:40;100539.41;;;13.45
76583;BMP280;65462;52.148;7.940;2023-07-22T02:36:06;100542.75;;;13.42
76583;BMP280;65462;52.148;7.940;2023-07-22T02:38:31;100544.19;;;13.40
76583;BMP280;65462;52.148;7.940;2023-07-22T02:41:03;100540.38;;;13.37
76583;BMP280;65462;52.148;7.940;2023-07-22T02:43:30;100549.44;;;13.36
76583;BMP280;65462;52.148;7.940;2023-07-22T02:45:56;100550.09;;;13.33
76583;BMP280;65462;52.148;7.940;2023-07-22T02:48:21;100550.88;;;13.34
76583;BMP280;65462;52.148;7.940;2023-07-22T02:50:46;100551.66;;;13.34
76583;BMP280;65462;52.148;7.940;2023-07-22T02:53:11;100546.56;;;13.29
76583;BMP280;65462;52.148;7.940;2023-07-22T02:55:37;100546.94;;;13.27
76583;BMP280;65462;52.148;7.940;2023-07-22T02:58:02;100551.47;;;13.27
76583;BMP280;65462;52.148;7.940;2023-07-22T03:00:28;100554.09;;;13.27
76583;BMP280;65462;52.148;7.940;2023-07-22T03:02:55;100547.63;;;13.24
76583;BMP280;65462;52.148;7.940;2023-07-22T03:05:29;100557.44;;;13.24
76583;BMP280;65462;52.148;7.940;2023-07-22T03:07:54;100551.06;;;13.25
76583;BMP280;65462;52.148;7.940;2023-07-22T03:10:20;100549.06;;;13.22
76583;BMP280;65462;52.148;7.940;2023-07-22T03:12:45;100556.56;;;13.20
76583;BMP280;65462;52.148;7.940;2023-07-22T03:15:10;100557.34;;;13.20
76583;BMP280;65462;52.148;7.940;2023-07-22T03:17:38;100552.38;;;13.19
76583;BMP280;65462;52.148;7.940;2023-07-22T03:20:04;100555.03;;;13.19
76583;BMP280;65462;52.148;7.940;2023-07-22T03:22:38;100553.50;;;13.18
76583;BMP280;65462;52.148;7.940;2023-07-22T03:25:04;100550.72;;;13.14
76583;BMP280;65462;52.148;7.940;2023-07-22T03:27:33;100552.97;;;13.12
76583;BMP280;65462;52.148;7.940;2023-07-22T03:29:58;100559.38;;;13.11
76583;BMP280;65462;52.148;7.940;2023-07-22T03:32:23;100557.03;;;13.10
76583;BMP280;65462;52.148;7.940;2023-07-22T03:34:48;100554.75;;;13.08
76583;BMP280;65462;52.148;7.940;2023-07-22T03:37:14;100554.66;;;13.05
76583;BMP280;65462;52.148;7.940;2023-07-22T03:39:39;100557.63;;;13.03
76583;BMP280;65462;52.148;7.940;2023-07-22T03:42:05;100561.41;;;13.02
76583;BMP280;65462;52.148;7.940;2023-07-22T03:44:30;100565.94;;;13.02
76583;BMP280;65462;52.148;7.940;2023-07-22T03:46:56;100565.16;;;13.01
76583;BMP280;65462;52.148;7.940;2023-07-22T03:49:21;100568.16;;;13.00
76583;BMP280;65462;52.148;7.940;2023-07-22T03:51:46;100566.25;;;13.00
76583;BMP280;65462;52.148;7.940;2023-07-22T03:54:11;100567.72;;;12.98
76583;BMP280;65462;52.148;7.940;2023-07-22T03:56:40;100563.50;;;12.97
76583;BMP280;65462;52.148;7.940;2023-07-22T03:59:06;100574.03;;;12.93
76583;BMP280;65462;52.148;7.940;2023-07-22T04:01:31;100572.59;;;12.96
76583;BMP280;65462;52.148;7.940;2023-07-22T04:03:56;100561.97;;;12.96
76583;BMP280;65462;52.148;7.940;2023-07-22T04:06:21;100565.84;;;12.98
76583;BMP280;65462;52.148;7.940;2023-07-22T04:08:47;100561.97;;;12.96
76583;BMP280;65462;52.148;7.940;2023-07-22T04:11:12;100562.41;;;12.98
76583;BMP280;65462;52.148;7.940;2023-07-22T04:13:39;100566.63;;;12.99
76583;BMP280;65462;52.148;7.940;2023-07-22T04:16:04;100558.97;;;12.97
76583;BMP280;65462;52.148;7.940;2023-07-22T04:18:30;100561.72;;;13.01
76583;BMP280;65462;52.148;7.940;2023-07-22T04:20:59;100567.03;;;13.01
76583;BMP280;65462;52.148;7.940;2023-07-22T04:23:25;100569.78;;;13.04
76583;BMP280;65462;52.148;7.940;2023-07-22T04:25:51;100566.44;;;13.07
76583;BMP280;65462;52.148;7.940;2023-07-22T04:28:16;100570.66;;;13.08
76583;BMP280;65462;52.148;7.940;2023-07-22T04:30:41;100574.53;;;13.11
76583;BMP280;65462;52.148;7.940;2023-07-22T04:33:07;100571.53;;;13.12
76583;BMP280;65462;52.148;7.940;2023-07-22T04:35:37;100570.53;;;13.17
76583;BMP280;65462;52.148;7.940;2023-07-22T04:38:03;100577.69;;;13.16
76583;BMP280;65462;52.148;7.940;2023-07-22T04:40:28;100584.34;;;13.22
76583;BMP280;65462;52.148;7.940;2023-07-22T04:42:55;100569.50;;;13.21
76583;BMP280;65462;52.148;7.940;2023-07-22T04:45:22;100573.38;;;13.24
76583;BMP280;65462;52.148;7.940;2023-07-22T04:47:49;100579.56;;;13.28
76583;BMP280;65462;52.148;7.940;2023-07-22T04:50:16;100578.44;;;13.29
76583;BMP280;65462;52.148;7.940;2023-07-22T04:52:43;100586.59;;;13.36
76583;BMP280;65462;52.148;7.940;2023-07-22T04:55:09;100582.84;;;13.37
76583;BMP280;65462;52.148;7.940;2023-07-22T04:57:35;100573.88;;;13.42
76583;BMP280;65462;52.148;7.940;2023-07-22T05:00:04;100572.41;;;13.44
76583;BMP280;65462;52.148;7.940;2023-07-22T05:02:30;100577.47;;;13.49
76583;BMP280;65462;52.148;7.940;2023-07-22T05:04:56;100577.53;;;13.53
76583;BMP280;65462;52.148;7.940;2023-07-22T05:07:21;100580.97;;;13.53
76583;BMP280;65462;52.148;7.940;2023-07-22T05:09:47;100579.53;;;13.56
76583;BMP280;65462;52.148;7.940;2023-07-22T05:12:12;100578.53;;;13.60
76583;BMP280;65462;52.148;7.940;2023-07-22T05:14:37;100584.25;;;13.62
76583;BMP280;65462;52.148;7.940;2023-07-22T05:17:03;100582.13;;;13.68
76583;BMP280;65462;52.148;7.940;2023-07-22T05:19:28;100580.66;;;13.70
76583;BMP280;65462;52.148;7.940;2023-07-22T05:21:53;100585.31;;;13.73
76583;BMP280;65462;52.148;7.940;2023-07-22T05:24:18;100583.84;;;13.76
76583;BMP280;65462;52.148;7.940;2023-07-22T05:26:46;100580.81;;;13.77
76583;BMP280;65462;52.148;7.940;2023-07-22T05:29:11;100587.09;;;13.85
76583;BMP280;65462;52.148;7.940;2023-07-22T05:31:36;100576.94;;;13.87
76583;BMP280;65462;52.148;7.940;2023-07-22T05:34:02;100583.53;;;13.93
76583;BMP280;65462;52.148;7.940;2023-07-22T05:36:29;100583.25;;;13.98
76583;BMP280;65462;52.148;7.940;2023-07-22T05:38:54;100583.34;;;14.01
76583;BMP280;65462;52.148;7.940;2023-07-22T05:41:19;100589.16;;;14.07
76583;BMP280;65462;52.148;7.940;2023-07-22T05:43:45;100590.81;;;14.12
76583;BMP280;65462;52.148;7.940;2023-07-22T05:46:10;100600.06;;;14.18
76583;BMP280;65462;52.148;7.940;2023-07-22T05:48:35;100591.06;;;14.22
76583;BMP280;65462;52.148;7.940;2023-07-22T05:51:00;100587.34;;;14.27
76583;BMP280;65462;52.148;7.940;2023-07-22T05:53:26;100588.22;;;14.31
76583;BMP280;65462;52.148;7.940;2023-07-22T05:55:51;100586.44;;;14.35
76583;BMP280;65462;52.148;7.940;2023-07-22T05:58:17;100592.56;;;14.39
76583;BMP280;65462;52.148;7.940;2023-07-22T06:00:43;100590.75;;;14.43
76583;BMP280;65462;52.148;7.940;2023-07-22T06:03:08;100590.06;;;14.46
76583;BMP280;65462;52.148;7.940;2023-07-22T06:05:34;100585.59;;;14.50
76583;BMP280;65462;52.148;7.940;2023-07-22T06:07:59;100597.09;;;14.54
76583;BMP280;65462;52.148;7.940;2023-07-22T06:10:25;100587.97;;;14.55
76583;BMP280;65462;52.148;7.940;2023-07-22T06:12:50;100588.91;;;14.62
76583;BMP280;65462;52.148;7.940;2023-07-22T06:15:15;100587.88;;;14.67
76583;BMP280;65462;52.148;7.940;2023-07-22T06:17:41;100589.16;;;14.73
76583;BMP280;65462;52.148;7.940;2023-07-22T06:20:06;100590.41;;;14.79
76583;BMP280;65462;52.148;7.940;2023-07-22T06:22:32;100589.03;;;14.85
76583;BMP280;65462;52.148;7.940;2023-07-22T06:24:58;100594.81;;;14.91
76583;BMP280;65462;52.148;7.940;2023-07-22T06:27:23;100587.38;;;14.96
76583;BMP280;65462;52.148;7.940;2023-07-22T06:29:48;100582.16;;;15.03
76583;BMP280;65462;52.148;7.940;2023-07-22T06:32:13;100584.56;;;15.08
76583;BMP280;65462;52.148;7.940;2023-07-22T06:34:39;100588.53;;;15.18
76583;BMP280;65462;52.148;7.940;2023-07-22T06:37:04;100585.25;;;15.24
76583;BMP280;65462;52.148;7.940;2023-07-22T06:39:29;100593.38;;;15.31
76583;BMP280;65462;52.148;7.940;2023-07-22T06:41:55;100590.47;;;15.40
76583;BMP280;65462;52.148;7.940;2023-07-22T06:44:20;100588.72;;;15.47
76583;BMP280;65462;52.148;7.940;2023-07-22T06:46:46;100591.50;;;15.54
76583;BMP280;65462;52.148;7.940;2023-07-22T06:49:11;100593.50;;;15.61
76583;BMP280;65462;52.148;7.940;2023-07-22T06:51:37;100585.94;;;15.63
76583;BMP280;65462;52.148;7.940;2023-07-22T06:54:03;100584.22;;;15.74
76583;BMP280;65462;52.148;7.940;2023-07-22T06:56:28;100585.81;;;15.79
76583;BMP280;65462;52.148;7.940;2023-07-22T06:58:53;100591.34;;;15.89
76583;BMP280;65462;52.148;7.940;2023-07-22T07:01:18;100585.41;;;15.99
76583;BMP280;65462;52.148;7.940;2023-07-22T07:03:44;100584.75;;;16.06
76583;BMP280;65462;52.148;7.940;2023-07-22T07:06:09;100591.72;;;16.14
76583;BMP280;65462;52.148;7.940;2023-07-22T07:08:34;100575.03;;;16.20
76583;BMP280;65462;52.148;7.940;2023-07-22T07:11:00;100584.34;;;16.30
76583;BMP280;65462;52.148;7.940;2023-07-22T07:13:26;100573.75;;;16.37
76583;BMP280;65462;52.148;7.940;2023-07-22T07:15:51;100585.34;;;16.48
76583;BMP280;65462;52.148;7.940;2023-07-22T07:18:17;100580.91;;;16.59
76583;BMP280;65462;52.148;7.940;2023-07-22T07:20:43;100576.50;;;16.70
76583;BMP280;65462;52.148;7.940;2023-07-22T07:23:08;100575.53;;;16.85
76583;BMP280;65462;52.148;7.940;2023-07-22T07:25:33;100574.22;;;17.02
76583;BMP280;65462;52.148;7.940;2023-07-22T07:27:59;100581.19;;;17.17
76583;BMP280;65462;52.148;7.940;2023-07-22T07:30:24;100583.25;;;17.30
76583;BMP280;65462;52.148;7.940;2023-07-22T07:32:49;100579.16;;;17.40
76583;BMP280;65462;52.148;7.940;2023-07-22T07:35:15;100568.59;;;17.51
76583;BMP280;65462;52.148;7.940;2023-07-22T07:37:40;100571.28;;;17.58
76583;BMP280;65462;52.148;7.940;2023-07-22T07:40:06;100580.88;;;17.66
76583;BMP280;65462;52.148;7.940;2023-07-22T07:42:31;100585.53;;;17.72
76583;BMP280;65462;52.148;7.940;2023-07-22T07:44:57;100573.38;;;17.78
76583;BMP280;65462;52.148;7.940;2023-07-22T07:47:22;100573.00;;;17.83
76583;BMP280;65462;52.148;7.940;2023-07-22T07:49:47;100570.78;;;17.89
76583;BMP280;65462;52.148;7.940;2023-07-22T07:52:13;100575.00;;;17.93
76583;BMP280;65462;52.148;7.940;2023-07-22T07:54:38;100576.16;;;17.99
76583;BMP280;65462;52.148;7.940;2023-07-22T07:57:03;100580.06;;;18.05
76583;BMP280;65462;52.148;7.940;2023-07-22T07:59:29;100583.13;;;18.07
76583;BMP280;65462;52.148;7.940;2023-07-22T08:01:54;100582.75;;;18.12
76583;BMP280;65462;52.148;7.940;2023-07-22T08:04:19;100584.72;;;18.22
76583;BMP280;65462;52.148;7.940;2023-07-22T08:06:44;100572.56;;;18.35
76583;BMP280;65462;52.148;7.940;2023-07-22T08:09:10;100587.53;;;18.47
76583;BMP280;65462;52.148;7.940;2023-07-22T08:11:36;100573.81;;;18.59
76583;BMP280;65462;52.148;7.940;2023-07-22T08:14:02;100571.16;;;18.73
76583;BMP280;65462;52.148;7.940;2023-07-22T08:16:27;100572.78;;;18.92
76583;BMP280;65462;52.148;7.940;2023-07-22T08:18:53;100572.00;;;19.05
76583;BMP280;65462;52.148;7.940;2023-07-22T08:21:18;100569.75;;;19.18
76583;BMP280;65462;52.148;7.940;2023-07-22T08:23:45;100564.81;;;19.34
76583;BMP280;65462;52.148;7.940;2023-07-22T08:26:12;100569.78;;;19.50
76583;BMP280;65462;52.148;7.940;2023-07-22T08:28:38;100578.97;;;19.63
76583;BMP280;65462;52.148;7.940;2023-07-22T08:31:03;100565.94;;;19.68
76583;BMP280;65462;52.148;7.940;2023-07-22T08:33:29;100567.81;;;19.75
76583;BMP280;65462;52.148;7.940;2023-07-22T08:35:55;100575.47;;;19.80
76583;BMP280;65462;52.148;7.940;2023-07-22T08:38:20;100573.59;;;19.87
76583;BMP280;65462;52.148;7.940;2023-07-22T08:40:49;100572.03;;;19.90
76583;BMP280;65462;52.148;7.940;2023-07-22T08:43:19;100584.66;;;19.89
76583;BMP280;65462;52.148;7.940;2023-07-22T08:45:47;100583.16;;;19.88
76583;BMP280;65462;52.148;7.940;2023-07-22T08:48:15;100588.13;;;19.86
76583;BMP280;65462;52.148;7.940;2023-07-22T08:50:52;100583.94;;;19.82
76583;BMP280;65462;52.148;7.940;2023-07-22T08:53:18;100577.81;;;19.78
76583;BMP280;65462;52.148;7.940;2023-07-22T08:55:49;100590.44;;;19.77
76583;BMP280;65462;52.148;7.940;2023-07-22T08:58:14;100591.19;;;19.71
76583;BMP280;65462;52.148;7.940;2023-07-22T09:00:40;100589.69;;;19.70
76583;BMP280;65462;52.148;7.940;2023-07-22T09:03:06;100593.13;;;19.67
76583;BMP280;65462;52.148;7.940;2023-07-22T09:05:33;100594.31;;;19.66
76583;BMP280;65462;52.148;7.940;2023-07-22T09:07:59;100585.06;;;19.67
76583;BMP280;65462;52.148;7.940;2023-07-22T09:10:27;100588.91;;;19.73
76583;BMP280;65462;52.148;7.940;2023-07-22T09:12:53;100585.84;;;19.78
76583;BMP280;65462;52.148;7.940;2023-07-22T09:15:19;100582.38;;;19.81
76583;BMP280;65462;52.148;7.940;2023-07-22T09:17:45;100582.38;;;19.81
76583;BMP280;65462;52.148;7.940;2023-07-22T09:20:12;100573.59;;;19.87
76583;BMP280;65462;52.148;7.940;2023-07-22T09:22:46;100575.84;;;19.89
76583;BMP280;65462;52.148;7.940;2023-07-22T09:25:26;100588.88;;;19.97
76583;BMP280;65462;52.148;7.940;2023-07-22T09:27:53;100577.75;;;19.99
76583;BMP280;65462;52.148;7.940;2023-07-22T09:32:56;100573.53;;;19.98
76583;BMP280;65462;52.148;7.940;2023-07-22T09:35:23;100573.56;;;19.94
76583;BMP280;65462;52.148;7.940;2023-07-22T09:37:49;100572.78;;;19.94
76583;BMP280;65462;52.148;7.940;2023-07-22T09:40:18;100578.94;;;19.91
76583;BMP280;65462;52.148;7.940;2023-07-22T09:42:49;100580.84;;;19.87
76583;BMP280;65462;52.148;7.940;2023-07-22T09:45:15;100580.06;;;19.79
76583;BMP280;65462;52.148;7.940;2023-07-22T09:47:45;100572.41;;;19.71
76583;BMP280;65462;52.148;7.940;2023-07-22T09:50:13;100577.41;;;19.62
76583;BMP280;65462;52.148;7.940;2023-07-22T09:52:44;100578.19;;;19.55
76583;BMP280;65462;52.148;7.940;2023-07-22T09:55:10;100575.13;;;19.46
76583;BMP280;65462;52.148;7.940;2023-07-22T09:57:40;100570.56;;;19.43
76583;BMP280;65462;52.148;7.940;2023-07-22T10:00:08;100569.78;;;19.43
76583;BMP280;65462;52.148;7.940;2023-07-22T10:02:35;100563.28;;;19.44
76583;BMP280;65462;52.148;7.940;2023-07-22T10:05:01;100547.56;;;19.46
76583;BMP280;65462;52.148;7.940;2023-07-22T10:07:30;100557.50;;;19.49
76583;BMP280;65462;52.148;7.940;2023-07-22T10:09:57;100547.94;;;19.55
76583;BMP280;65462;52.148;7.940;2023-07-22T10:12:23;100546.41;;;19.57
76583;BMP280;65462;52.148;7.940;2023-07-22T10:14:50;100549.09;;;19.61
76583;BMP280;65462;52.148;7.940;2023-07-22T10:17:19;100549.47;;;19.66
76583;BMP280;65462;52.148;7.940;2023-07-22T10:19:44;100547.94;;;19.69
76583;BMP280;65462;52.148;7.940;2023-07-22T10:22:10;100556.34;;;19.71
76583;BMP280;65462;52.148;7.940;2023-07-22T10:24:36;100547.16;;;19.65
76583;BMP280;65462;52.148;7.940;2023-07-22T10:27:02;100561.72;;;19.64
76583;BMP280;65462;52.148;7.940;2023-07-22T10:29:28;100551.75;;;19.61
76583;BMP280;65462;52.148;7.940;2023-07-22T10:31:54;100558.28;;;19.60
76583;BMP280;65462;52.148;7.940;2023-07-22T10:34:26;100546.03;;;19.55
76583;BMP280;65462;52.148;7.940;2023-07-22T10:36:51;100543.69;;;19.54
76583;BMP280;65462;52.148;7.940;2023-07-22T10:39:35;100556.75;;;19.52
76583;BMP280;65462;52.148;7.940;2023-07-22T10:42:01;100548.31;;;19.50
76583;BMP280;65462;52.148;7.940;2023-07-22T10:44:31;100549.47;;;19.49
76583;BMP280;65462;52.148;7.940;2023-07-22T10:46:57;100551.41;;;19.48
76583;BMP280;65462;52.148;7.940;2023-07-22T10:49:23;100539.91;;;19.48
76583;BMP280;65462;52.148;7.940;2023-07-22T10:51:50;100548.72;;;19.48
76583;BMP280;65462;52.148;7.940;2023-07-22T10:54:31;100538.72;;;19.49
76583;BMP280;65462;52.148;7.940;2023-07-22T10:57:03;100539.13;;;19.51
76583;BMP280;65462;52.148;7.940;2023-07-22T10:59:32;100526.50;;;19.51
76583;BMP280;65462;52.148;7.940;2023-07-22T11:01:58;100521.13;;;19.51
76583;BMP280;65462;52.148;7.940;2023-07-22T11:04:24;100519.97;;;19.63
76583;BMP280;65462;52.148;7.940;2023-07-22T11:06:59;100523.03;;;19.68
76583;BMP280;65462;52.148;7.940;2023-07-22T11:14:27;100519.53;;;19.85
76583;BMP280;65462;52.148;7.940;2023-07-22T11:16:53;100524.50;;;19.90
76583;BMP280;65462;52.148;7.940;2023-07-22T11:19:21;100527.19;;;19.94
76583;BMP280;65462;52.148;7.940;2023-07-22T11:21:49;100519.88;;;20.01
76583;BMP280;65462;52.148;7.940;2023-07-22T11:24:15;100532.50;;;20.08
76583;BMP280;65462;52.148;7.940;2023-07-22T11:26:41;100518.66;;;20.13
76583;BMP280;65462;52.148;7.940;2023-07-22T11:29:08;100514.44;;;20.15
76583;BMP280;65462;52.148;7.940;2023-07-22T11:31:39;100512.88;;;20.18
76583;BMP280;65462;52.148;7.940;2023-07-22T11:34:08;100511.38;;;20.20
76583;BMP280;65462;52.148;7.940;2023-07-22T11:36:34;100507.13;;;20.23
76583;BMP280;65462;52.148;7.940;2023-07-22T11:39:11;100502.06;;;20.39
76583;BMP280;65462;52.148;7.940;2023-07-22T11:41:37;100509.63;;;20.58
76583;BMP280;65462;52.148;7.940;2023-07-22T11:44:04;100496.09;;;20.72
76583;BMP280;65462;52.148;7.940;2023-07-22T11:46:59;100500.22;;;20.87
76583;BMP280;65462;52.148;7.940;2023-07-22T11:49:30;100499.41;;;20.94
76583;BMP280;65462;52.148;7.940;2023-07-22T11:52:01;100503.91;;;21.04
76583;BMP280;65462;52.148;7.940;2023-07-22T11:54:28;100515.38;;;21.08
76583;BMP280;65462;52.148;7.940;2023-07-22T11:56:54;100501.13;;;21.14
76583;BMP280;65462;52.148;7.940;2023-07-22T11:59:36;100517.59;;;21.20
76583;BMP280;65462;52.148;7.940;2023-07-22T12:02:02;100507.63;;;21.20
76583;BMP280;65462;52.148;7.940;2023-07-22T12:04:30;100506.00;;;21.30
76583;BMP280;65462;52.148;7.940;2023-07-22T12:06:56;100508.63;;;21.33
76583;BMP280;65462;52.148;7.940;2023-07-22T12:09:22;100498.56;;;21.41
76583;BMP280;65462;52.148;7.940;2023-07-22T12:11:55;100497.41;;;21.45
76583;BMP280;65462;52.148;7.940;2023-07-22T12:14:20;100491.22;;;21.48
76583;BMP280;65462;52.148;7.940;2023-07-22T12:16:45;100488.06;;;21.54
76583;BMP280;65462;52.148;7.940;2023-07-22T12:19:11;100484.16;;;21.62
76583;BMP280;65462;52.148;7.940;2023-07-22T12:21:36;100479.56;;;21.62
76583;BMP280;65462;52.148;7.940;2023-07-22T12:24:02;100487.97;;;21.64
76583;BMP280;65462;52.148;7.940;2023-07-22T12:26:29;100471.78;;;21.68
76583;BMP280;65462;52.148;7.940;2023-07-22T12:28:54;100472.50;;;21.72
76583;BMP280;65462;52.148;7.940;2023-07-22T12:31:20;100479.31;;;21.80
76583;BMP280;65462;52.148;7.940;2023-07-22T12:33:45;100479.28;;;21.83
76583;BMP280;65462;52.148;7.940;2023-07-22T12:36:10;100488.03;;;21.91
76583;BMP280;65462;52.148;7.940;2023-07-22T12:38:36;100478.50;;;21.86
76583;BMP280;65462;52.148;7.940;2023-07-22T12:41:01;100477.66;;;21.89
76583;BMP280;65462;52.148;7.940;2023-07-22T12:43:27;100478.44;;;21.90
76583;BMP280;65462;52.148;7.940;2023-07-22T12:45:52;100483.47;;;21.88
76583;BMP280;65462;52.148;7.940;2023-07-22T12:48:18;100477.25;;;21.91
76583;BMP280;65462;52.148;7.940;2023-07-22T12:50:44;100478.41;;;21.93
76583;BMP280;65462;52.148;7.940;2023-07-22T12:53:09;100482.19;;;21.96
76583;BMP280;65462;52.148;7.940;2023-07-22T12:55:43;100478.41;;;21.93
76583;BMP280;65462;52.148;7.940;2023-07-22T12:58:09;100483.00;;;21.93
76583;BMP280;65462;52.148;7.940;2023-07-22T13:00:37;100476.00;;;21.99
76583;BMP280;65462;52.148;7.940;2023-07-22T13:03:02;100466.00;;;21.99
76583;BMP280;65462;52.148;7.940;2023-07-22T13:05:28;100464.06;;;22.00
76583;BMP280;65462;52.148;7.940;2023-07-22T13:07:53;100467.09;;;22.05
76583;BMP280;65462;52.148;7.940;2023-07-22T13:10:18;100459.78;;;22.06
76583;BMP280;65462;52.148;7.940;2023-07-22T13:12:45;100456.59;;;22.11
76583;BMP280;65462;52.148;7.940;2023-07-22T13:15:10;100449.19;;;22.18
76583;BMP280;65462;52.148;7.940;2023-07-22T13:17:36;100453.69;;;22.28
76583;BMP280;65462;52.148;7.940;2023-07-22T13:20:02;100450.06;;;22.38
76583;BMP280;65462;52.148;7.940;2023-07-22T13:22:30;100449.53;;;22.47
76583;BMP280;65462;52.148;7.940;2023-07-22T13:24:55;100444.88;;;22.51
76583;BMP280;65462;52.148;7.940;2023-07-22T13:27:20;100451.72;;;22.55
76583;BMP280;65462;52.148;7.940;2023-07-22T13:29:46;100437.38;;;22.62
76583;BMP280;65462;52.148;7.940;2023-07-22T13:32:11;100440.41;;;22.64
76583;BMP280;65462;52.148;7.940;2023-07-22T13:34:36;100442.34;;;22.63
76583;BMP280;65462;52.148;7.940;2023-07-22T13:37:02;100442.69;;;22.66
76583;BMP280;65462;52.148;7.940;2023-07-22T13:39:28;100427.34;;;22.63
76583;BMP280;65462;52.148;7.940;2023-07-22T13:41:53;100431.63;;;22.60
76583;BMP280;65462;52.148;7.940;2023-07-22T13:44:18;100426.66;;;22.58
76583;BMP280;65462;52.148;7.940;2023-07-22T13:46:43;100427.53;;;22.52
76583;BMP280;65462;52.148;7.940;2023-07-22T13:49:09;100424.13;;;22.48
76583;BMP280;65462;52.148;7.940;2023-07-22T13:51:34;100420.75;;;22.44
76583;BMP280;65462;52.148;7.940;2023-07-22T13:53:59;100433.13;;;22.38
76583;BMP280;65462;52.148;7.940;2023-07-22T13:56:25;100421.69;;;22.30
76583;BMP280;65462;52.148;7.940;2023-07-22T13:58:50;100422.56;;;22.24